Terminal Aerodrome Forecast
Issued by NWS Caribou, ME

Home | Current Version | Previous Version | Text Only | Print | Product List | Glossary On
Versions: 1 2 3 4 5 6 7 8 9 10 11 12 13 14 15 16 17 18 19 20 21 22 23 24 25 26 27 28 29 30
000
FTUS41 KCAR 021700
TAFBGR
TAF
KBGR 021739Z 0218/0318 17009KT P6SM OVC005
     FM021900 16011KT P6SM BKN010
     FM022300 16009KT 5SM BR OVC008
     FM030600 19005KT 1/2SM -SHRA FG VCTS OVC002CB
     FM031000 25006KT P6SM BKN008
     FM031300 27007KT P6SM SCT025=

USA.gov is the U.S. government's official web portal to all federal, state and local government web resources and services.